createdAt,value
2023-03-27T00:02:23.762Z,98121.44
2023-03-27T00:06:40.648Z,98119.53
2023-03-27T00:10:57.407Z,98104.69
2023-03-27T00:15:17.704Z,98098.88
2023-03-27T00:19:34.159Z,98101.03
2023-03-27T00:23:50.996Z,98088.44
2023-03-27T00:28:08.623Z,98084.28
2023-03-27T00:32:24.953Z,98072.03
2023-03-27T00:36:42.050Z,98071.19
2023-03-27T00:40:58.472Z,98069.75
2023-03-27T00:45:20.627Z,98063.00
2023-03-27T00:49:37.694Z,98058.19
2023-03-27T00:53:55.149Z,98050.63
2023-03-27T00:58:32.702Z,98049.16
2023-03-27T01:02:50.649Z,98036.97
2023-03-27T01:07:08.790Z,98037.75
2023-03-27T01:11:42.346Z,98026.81
2023-03-27T01:16:02.074Z,98018.44
2023-03-27T01:20:35.424Z,98015.25
2023-03-27T01:25:19.786Z,98012.75
2023-03-27T01:30:07.101Z,98004.47
2023-03-27T01:34:32.567Z,97990.50
2023-03-27T01:39:17.804Z,97991.53
2023-03-27T01:43:37.725Z,97986.56
2023-03-27T01:48:09.694Z,97979.50
2023-03-27T01:52:30.042Z,97979.66
2023-03-27T01:56:54.030Z,97972.31
2023-03-27T02:01:11.508Z,97972.13
2023-03-27T02:05:34.965Z,97967.00
2023-03-27T02:09:56.981Z,97954.78
2023-03-27T02:14:17.731Z,97958.31
2023-03-27T02:18:37.267Z,97969.91
2023-03-27T02:22:53.950Z,97963.44
2023-03-27T02:27:24.341Z,97965.09
2023-03-27T02:31:57.439Z,97963.50
2023-03-27T02:36:22.957Z,97950.97
2023-03-27T02:40:56.025Z,97962.06
2023-03-27T02:45:20.547Z,97942.78
2023-03-27T02:49:46.968Z,97938.16
2023-03-27T02:54:29.184Z,97931.72
2023-03-27T02:59:10.866Z,97942.16
2023-03-27T03:03:33.185Z,97925.00
2023-03-27T03:07:49.764Z,97914.88
2023-03-27T03:12:06.028Z,97918.75
2023-03-27T03:16:23.301Z,97907.63
2023-03-27T03:20:39.998Z,97915.50
2023-03-27T03:24:57.412Z,97911.63
2023-03-27T03:29:14.489Z,97913.75
2023-03-27T03:33:30.882Z,97913.47
2023-03-27T03:37:51.111Z,97908.78
2023-03-27T03:42:07.693Z,97898.00
2023-03-27T03:46:23.944Z,97899.97
2023-03-27T03:50:40.163Z,97894.19
2023-03-27T03:54:56.412Z,97894.19
2023-03-27T03:59:12.701Z,97884.53
2023-03-27T04:03:32.675Z,97885.66
2023-03-27T04:07:50.065Z,97880.53
2023-03-27T04:12:06.568Z,97879.94
2023-03-27T04:16:23.139Z,97881.84
2023-03-27T04:20:39.412Z,97884.38
2023-03-27T04:24:55.845Z,97880.22
2023-03-27T04:29:12.168Z,97878.00
2023-03-27T04:33:30.615Z,97877.00
2023-03-27T04:37:48.634Z,97883.09
2023-03-27T04:42:04.927Z,97881.19
2023-03-27T04:46:21.230Z,97880.53
2023-03-27T04:50:37.630Z,97877.97
2023-03-27T04:54:53.981Z,97882.00
2023-03-27T04:59:10.221Z,97896.13
2023-03-27T05:03:28.062Z,97898.53
2023-03-27T05:07:48.891Z,97887.63
2023-03-27T05:12:05.436Z,97894.19
2023-03-27T05:16:21.706Z,97882.00
2023-03-27T05:20:38.147Z,97879.44
2023-03-27T05:24:54.666Z,97875.41
2023-03-27T05:29:11.104Z,97880.88
2023-03-27T05:33:27.991Z,97880.22
2023-03-27T05:37:47.916Z,97872.88
2023-03-27T05:42:04.409Z,97866.59
2023-03-27T05:46:21.736Z,97861.16
2023-03-27T05:50:38.332Z,97864.03
2023-03-27T05:54:54.549Z,97868.22
2023-03-27T05:59:10.946Z,97872.53
2023-03-27T06:03:30.640Z,97872.56
2023-03-27T06:07:51.002Z,97862.75
2023-03-27T06:12:09.311Z,97856.63
2023-03-27T06:16:26.000Z,97860.84
2023-03-27T06:20:42.983Z,97856.97
2023-03-27T06:24:59.207Z,97849.41
2023-03-27T06:29:15.554Z,97857.94
2023-03-27T06:33:31.900Z,97858.38
2023-03-27T06:37:53.133Z,97855.81
2023-03-27T06:42:09.454Z,97860.81
2023-03-27T06:46:32.161Z,97858.19
2023-03-27T06:50:55.795Z,97853.09
2023-03-27T06:55:14.684Z,97846.91
2023-03-27T06:59:33.498Z,97857.25
2023-03-27T07:03:49.732Z,97850.13
2023-03-27T07:08:21.145Z,97850.97
2023-03-27T07:12:40.270Z,97849.66
2023-03-27T07:16:57.314Z,97849.03
2023-03-27T07:21:15.443Z,97844.22
2023-03-27T07:25:37.458Z,97843.75
2023-03-27T07:29:54.421Z,97849.53
2023-03-27T07:34:10.817Z,97850.00
2023-03-27T07:38:27.072Z,97843.22
2023-03-27T07:42:46.377Z,97846.81
2023-03-27T07:47:02.691Z,97860.53
2023-03-27T07:51:18.949Z,97855.09
2023-03-27T07:55:38.129Z,97857.34
2023-03-27T07:59:56.629Z,97860.53
2023-03-27T08:04:12.930Z,97857.97
2023-03-27T08:08:29.648Z,97861.81
2023-03-27T08:12:46.080Z,97857.50
2023-03-27T08:17:14.427Z,97859.06
2023-03-27T08:21:37.540Z,97856.03
2023-03-27T08:25:54.661Z,97853.28
2023-03-27T08:30:14.184Z,97848.31
2023-03-27T08:34:31.243Z,97844.25
2023-03-27T08:38:48.843Z,97843.44
2023-03-27T08:43:12.057Z,97838.53
2023-03-27T08:47:37.886Z,97858.13
2023-03-27T08:52:10.967Z,97875.75
2023-03-27T08:56:27.527Z,97875.41
2023-03-27T09:00:44.222Z,97872.28
2023-03-27T09:05:18.171Z,97871.81
2023-03-27T09:09:46.639Z,97865.34
2023-03-27T09:14:11.368Z,97885.94
2023-03-27T09:18:40.795Z,97882.22
2023-03-27T09:23:09.424Z,97885.19
2023-03-27T09:27:29.656Z,97881.97
2023-03-27T09:31:51.293Z,97899.63
2023-03-27T09:36:08.104Z,97904.78
2023-03-27T09:40:50.465Z,97915.69
2023-03-27T09:45:10.408Z,97908.34
2023-03-27T09:49:28.018Z,97897.56
2023-03-27T09:53:59.322Z,97909.94
2023-03-27T09:58:43.860Z,97924.88
2023-03-27T10:03:06.029Z,97922.94
2023-03-27T10:07:28.230Z,97931.12
2023-03-27T10:11:44.440Z,97933.19
2023-03-27T10:16:09.268Z,97937.69
2023-03-27T10:20:25.780Z,97947.47
2023-03-27T10:24:44.069Z,97942.81
2023-03-27T10:29:17.489Z,97947.78
2023-03-27T10:33:40.017Z,97954.66
2023-03-27T10:37:56.740Z,97960.41
2023-03-27T10:42:15.109Z,97964.72
2023-03-27T10:46:36.553Z,97957.38
2023-03-27T10:50:59.671Z,97964.41
2023-03-27T10:55:48.971Z,97966.53
2023-03-27T11:00:43.205Z,97964.25
2023-03-27T11:05:17.209Z,97971.31
2023-03-27T11:09:54.013Z,97974.41
2023-03-27T11:14:24.726Z,97977.16
2023-03-27T11:18:46.044Z,97976.69
2023-03-27T11:23:32.376Z,97987.28
2023-03-27T11:28:17.659Z,97999.59
2023-03-27T11:32:53.555Z,97996.25
2023-03-27T11:37:25.867Z,98003.22
2023-03-27T11:41:47.591Z,97997.13
2023-03-27T11:46:35.847Z,98012.91
2023-03-27T11:51:18.766Z,98009.84
2023-03-27T11:55:59.359Z,98007.66
2023-03-27T12:00:30.035Z,98018.19
2023-03-27T12:04:55.876Z,98023.16
2023-03-27T12:09:23.525Z,98031.12
2023-03-27T12:14:01.087Z,98052.75
2023-03-27T12:18:35.783Z,98064.03
2023-03-27T12:23:01.798Z,98072.25
2023-03-27T12:27:33.035Z,98076.72
2023-03-27T12:32:13.672Z,98083.13
2023-03-27T12:36:35.123Z,98097.44
2023-03-27T12:41:09.580Z,98091.69
2023-03-27T12:45:29.443Z,98103.75
2023-03-27T12:49:56.230Z,98099.22
2023-03-27T12:54:31.878Z,98108.59
2023-03-27T12:58:54.830Z,98118.87
2023-03-27T13:03:23.441Z,98133.59
2023-03-27T13:07:58.590Z,98154.56
2023-03-27T13:12:48.414Z,98154.34
2023-03-27T13:17:30.294Z,98182.19
2023-03-27T13:22:14.890Z,98202.00
2023-03-27T13:27:00.530Z,98197.63
2023-03-27T13:31:59.125Z,98217.25
2023-03-27T13:36:21.842Z,98242.72
2023-03-27T13:40:40.762Z,98250.81
2023-03-27T13:45:07.661Z,98284.06
2023-03-27T13:49:43.830Z,98297.34
2023-03-27T13:54:09.276Z,98311.56
2023-03-27T13:58:49.528Z,98328.28
2023-03-27T14:03:30.341Z,98356.31
2023-03-27T14:07:53.678Z,98368.66
2023-03-27T14:12:31.439Z,98379.66
2023-03-27T14:17:04.806Z,98402.69
2023-03-27T14:21:35.741Z,98411.12
2023-03-27T14:26:12.324Z,98448.16
2023-03-27T14:30:34.898Z,98457.09
2023-03-27T14:34:54.805Z,98469.53
2023-03-27T14:39:17.388Z,98451.97
2023-03-27T14:43:34.048Z,98489.03
2023-03-27T14:47:56.360Z,98511.72
2023-03-27T14:52:18.215Z,98500.91
2023-03-27T14:56:42.700Z,98504.44
2023-03-27T15:01:01.465Z,98499.84
2023-03-27T15:05:19.499Z,98511.22
2023-03-27T15:09:39.881Z,98498.16
2023-03-27T15:13:57.032Z,98524.13
2023-03-27T15:18:28.068Z,98514.28
2023-03-27T15:22:51.412Z,98524.88
2023-03-27T15:27:13.112Z,98547.78
2023-03-27T15:31:33.958Z,98551.56
2023-03-27T15:35:53.606Z,98567.69
2023-03-27T15:40:15.710Z,98578.44
2023-03-27T15:44:33.799Z,98611.47
2023-03-27T15:48:55.591Z,98605.50
2023-03-27T15:53:12.126Z,98600.38
2023-03-27T15:57:31.940Z,98617.88
2023-03-27T16:02:03.972Z,98621.59
2023-03-27T16:06:33.822Z,98632.47
2023-03-27T16:10:50.524Z,98666.25
2023-03-27T16:15:27.962Z,98669.81
2023-03-27T16:19:55.116Z,98680.81
2023-03-27T16:24:11.625Z,98701.97
2023-03-27T16:28:30.072Z,98726.06
2023-03-27T16:32:46.507Z,98743.34
2023-03-27T16:37:03.398Z,98755.78
2023-03-27T16:41:22.102Z,98780.31
2023-03-27T16:45:38.760Z,98789.41
2023-03-27T16:50:10.339Z,98797.37
2023-03-27T16:54:28.052Z,98818.97
2023-03-27T16:58:45.423Z,98840.47
2023-03-27T17:03:02.025Z,98857.41
2023-03-27T17:07:18.346Z,98866.03
2023-03-27T17:11:35.671Z,98882.91
2023-03-27T17:15:52.208Z,98906.00
2023-03-27T17:20:09.529Z,98926.19
2023-03-27T17:24:25.907Z,98937.06
2023-03-27T17:28:42.417Z,98966.81
2023-03-27T17:32:59.805Z,98977.41
2023-03-27T17:37:16.969Z,99003.47
2023-03-27T17:41:33.627Z,99032.50
2023-03-27T17:45:51.326Z,99038.28
2023-03-27T17:50:08.359Z,99058.75
2023-03-27T17:54:26.756Z,99064.78
2023-03-27T17:58:44.088Z,99079.88
2023-03-27T18:03:00.763Z,99094.56
2023-03-27T18:07:16.961Z,99110.22
2023-03-27T18:11:33.256Z,99109.06
2023-03-27T18:15:58.643Z,99122.38
2023-03-27T18:20:15.465Z,99129.06
2023-03-27T18:24:33.883Z,99139.44
2023-03-27T18:28:50.082Z,99139.47
2023-03-27T18:33:06.498Z,99146.44
2023-03-27T18:37:22.872Z,99146.44
2023-03-27T18:41:40.074Z,99165.31
2023-03-27T18:46:04.455Z,99156.44
2023-03-27T18:50:20.711Z,99160.88
2023-03-27T18:54:37.827Z,99179.63
2023-03-27T18:58:54.006Z,99184.69
2023-03-27T19:03:18.304Z,99188.44
2023-03-27T19:07:34.484Z,99180.44
2023-03-27T19:11:54.217Z,99176.91
2023-03-27T19:16:14.879Z,99183.03
2023-03-27T19:20:31.757Z,99190.97
2023-03-27T19:24:48.050Z,99192.03
2023-03-27T19:29:04.689Z,99194.34
2023-03-27T19:33:21.067Z,99198.53
2023-03-27T19:37:37.284Z,99207.31
2023-03-27T19:41:53.478Z,99209.97
2023-03-27T19:46:16.244Z,99190.72
2023-03-27T19:50:33.261Z,99189.88
2023-03-27T19:54:49.496Z,99198.72
2023-03-27T19:59:05.905Z,99192.47
2023-03-27T20:03:25.936Z,99206.19
2023-03-27T20:07:42.349Z,99210.25
2023-03-27T20:11:58.712Z,99204.28
2023-03-27T20:16:15.499Z,99207.28
2023-03-27T20:20:32.881Z,99214.84
2023-03-27T20:24:49.523Z,99222.87
2023-03-27T20:29:15.160Z,99226.81
2023-03-27T20:33:31.417Z,99235.97
2023-03-27T20:37:47.886Z,99240.88
2023-03-27T20:42:04.131Z,99241.53
2023-03-27T20:46:20.718Z,99240.53
2023-03-27T20:50:38.039Z,99229.50
2023-03-27T20:54:54.557Z,99245.31
2023-03-27T20:59:13.550Z,99245.78
2023-03-27T21:03:32.205Z,99253.41
2023-03-27T21:07:52.760Z,99261.87
2023-03-27T21:12:09.691Z,99262.00
2023-03-27T21:16:26.368Z,99266.38
2023-03-27T21:20:43.035Z,99280.00
2023-03-27T21:25:00.171Z,99286.69
2023-03-27T21:29:16.575Z,99278.09
2023-03-27T21:33:32.773Z,99288.41
2023-03-27T21:37:49.101Z,99292.37
2023-03-27T21:42:05.570Z,99302.03
2023-03-27T21:46:21.889Z,99302.69
2023-03-27T21:50:38.174Z,99306.16
2023-03-27T21:55:02.940Z,99309.03
2023-03-27T21:59:19.923Z,99312.75
2023-03-27T22:03:36.324Z,99319.69
2023-03-27T22:07:52.598Z,99324.81
2023-03-27T22:12:08.906Z,99326.53
2023-03-27T22:16:25.431Z,99349.19
2023-03-27T22:20:41.966Z,99352.00
2023-03-27T22:24:58.114Z,99346.97
2023-03-27T22:29:14.412Z,99345.69
2023-03-27T22:33:32.215Z,99357.03
2023-03-27T22:37:48.399Z,99362.56
2023-03-27T22:42:04.831Z,99372.28
2023-03-27T22:46:23.487Z,99377.31
2023-03-27T22:50:39.833Z,99390.09
2023-03-27T22:54:56.132Z,99392.31
2023-03-27T22:59:13.539Z,99394.53
2023-03-27T23:03:29.895Z,99409.53
2023-03-27T23:07:46.384Z,99415.25
2023-03-27T23:12:02.586Z,99415.94
2023-03-27T23:16:18.893Z,99422.59
2023-03-27T23:20:35.055Z,99431.56
2023-03-27T23:24:51.262Z,99427.41
2023-03-27T23:29:07.492Z,99429.63
2023-03-27T23:33:25.442Z,99442.31
2023-03-27T23:37:41.841Z,99445.34
2023-03-27T23:41:58.058Z,99454.91
2023-03-27T23:46:14.967Z,99447.44
2023-03-27T23:50:31.249Z,99451.53
2023-03-27T23:54:47.504Z,99443.31
2023-03-27T23:59:03.756Z,99455.22
